Nozovka, Russia
Current Conditions -  °F | °C
As of 8:00 PM on Wednesday 26 Nov 2014 (Local Time) from USPP Reporting Station
Broken Clouds Broken Clouds  
Wind Chill: 13°   Ceiling: 2600
Heat Index: 23°   Visibility: 6mi
Dew Point: 21°   Wind: 9mph
Humidity: 93%   Direction: 300°WNW
Pressure: 30.15"   Gusts: NA
Location:  57.08°N, 54.75°E
Report Text: USPP 261500Z 30004MPS 9999 BKN026 M05/M06 Q1021 21690345 TEMPOFZRA OVC007 RMK QFE755/1007
Loading
Personal Weather Stations






























Interactive Weather Map New forecast layout! Learn more

10-Day Weather Forecast

Advertisements
Track Severe Weather on mobile